DXB weather

Dubai International Airport
Dubai, Dubai Emirate, United Arab Emirates

Public forecast

Using degrees Celsius for public forecast. Weather courtesy of forecast.io.

METAR (pilot weather report)

Retrieved 2017/03/29 09:00 UTC (4 minutes ago):

OMDB 290900Z VRB05KT CAVOK 33/13 Q1014 BECMG 34010KT

TAF (pilot weather forecast)

Retrieved 2017/03/29 06:00 UTC (3 hours ago):

TAF OMDB 290447Z 2906/3012 04005KT 8000 NSC BECMG 2907/2909 33010KT BECMG 2916/2918 05005KT PROB30 3001/3004 4000 HZ BECMG 3007/3009 34010KT